Startpagina
METAR-TAF:

METAR-TAF

Vliegvelden :

Pian Rosa, Italië

breedte: 45-56N, lengte: 007-42E, hoogte: 3480 m

Actueel weer

Dit bericht is 40 minuten geleden gemaakt, om 18:55 UTC
Wind 9 kt uit het zuidzuidoosten
Temperatuur -9°C
Vochtigheid 92%
Druk 1019 hPa
Zicht: 6000 m
Verspreide wolken lager dan 100 ft

METAR: LIMH 241855Z 15009KT 6000 SCT000 M09/M10 Q1019 RMK SCT MON CLD SCT VAL CLD SCT VIS MIN 6000

Tijdstip: 20:35 (19:35 UTC)


TAF: ontbreekt

Waarnemingen en weersverwachtingen van meer dan 4000 vliegvelden (METAR en TAF).

De beschikbare stations zijn de gele en rode punten op de kaart.

Ga met uw muis naar het station om de naam te zien.

Klik dan om waarnemingen en weersverwachtingen te zien.

kaart wijzigen: klik op de groene knoppen met een zwart kruis om in te zoomen, op de groene knop met een streepje om uit te zoomen of op de groene pijlen voor aangrenzende kaarten.


METAR-TAF: